Station History

Weather Underground - logo

Station Historical Data
Daily Summary for November 23, 2017 Units:  English    Metric   Both
« Previous Day
Next Day »
Daily Weekly Monthly Yearly Custom
  High: Low: Average:
Temperature: 74.4 °F 46.4 °F 58.9 °F
Dew Point: 56.8 °F 44.5 °F 51.7 °F
Humidity: 95 % 51 % 79 %
Wind Speed: 4.0 mph 0.0 mph 0.4 mph
Wind Gust: 4.0 mph - -
Wind:- - SW
Pressure: 30.16 in 30.02 in -
Precipitation: 0.00 in    
Historical Graphs
 
 
Tabular Data for November 23, 2017
Time Temperature Dew Point Pressure Wind Wind Speed Wind Gust Humidity Rainfall Rate (Hourly)
00:03 51.4 °F 48.6 °F 30.12 in Calm     90 % 0.00 in
00:08 51.4 °F 48.9 °F 30.12 in Calm     91 % 0.00 in
00:13 51.6 °F 49.4 °F 30.12 in Calm     92 % 0.00 in
00:18 52.0 °F 49.5 °F 30.12 in Calm     91 % 0.00 in
00:28 52.5 °F 49.7 °F 30.11 in Calm     90 % 0.00 in
00:38 52.6 °F 49.4 °F 30.11 in Calm     89 % 0.00 in
00:43 52.7 °F 49.5 °F 30.11 in Calm     89 % 0.00 in
00:53 52.9 °F 49.4 °F 30.11 in Calm     88 % 0.00 in
00:58 53.0 °F 49.5 °F 30.11 in Calm     88 % 0.00 in
01:03 53.0 °F 49.5 °F 30.11 in Calm     88 % 0.00 in
01:08 53.0 °F 49.5 °F 30.11 in Calm     88 % 0.00 in
01:13 53.2 °F 49.4 °F 30.11 in Calm     87 % 0.00 in
01:23 53.5 °F 49.4 °F 30.11 in Calm     86 % 0.00 in
01:28 53.4 °F 49.6 °F 30.11 in Calm     87 % 0.00 in
01:43 53.8 °F 49.7 °F 30.10 in Calm     86 % 0.00 in
01:54 54.1 °F 49.7 °F 30.11 in Calm     85 % 0.00 in
01:58 53.7 °F 49.3 °F 30.11 in Calm     85 % 0.00 in
02:09 52.5 °F 48.7 °F 30.11 in Calm     87 % 0.00 in
02:14 52.2 °F 48.8 °F 30.11 in Calm     88 % 0.00 in
02:24 53.1 °F 49.6 °F 30.10 in WNW 1.2 mph 1.2 mph 88 % 0.00 in
02:34 54.3 °F 49.9 °F 30.11 in Calm     85 % 0.00 in
02:39 54.2 °F 49.8 °F 30.11 in Calm     85 % 0.00 in
02:44 53.5 °F 49.1 °F 30.11 in Calm     85 % 0.00 in
02:49 52.6 °F 48.5 °F 30.11 in WNW 1.2 mph   86 % 0.00 in
02:54 52.2 °F 48.4 °F 30.11 in Calm     87 % 0.00 in
02:59 51.7 °F 48.3 °F 30.11 in NW 2.3 mph 2.3 mph 88 % 0.00 in
03:09 51.3 °F 48.2 °F 30.12 in WNW 1.2 mph 1.2 mph 89 % 0.00 in
03:14 51.4 °F 48.3 °F 30.12 in NW 2.3 mph 2.3 mph 89 % 0.00 in
03:29 52.4 °F 48.9 °F 30.12 in NNW 1.2 mph 1.2 mph 88 % 0.00 in
03:34 52.5 °F 48.7 °F 30.12 in Calm     87 % 0.00 in
03:39 52.2 °F 48.4 °F 30.12 in Calm     87 % 0.00 in
03:44 51.4 °F 47.7 °F 30.13 in Calm   0.1 mph 87 % 0.00 in
03:54 50.2 °F 47.1 °F 30.12 in Calm     89 % 0.00 in
03:59 49.9 °F 47.1 °F 30.12 in Calm     90 % 0.00 in
04:09 49.7 °F 47.2 °F 30.12 in Calm     91 % 0.00 in
04:14 49.7 °F 47.2 °F 30.12 in Calm     91 % 0.00 in
04:19 49.4 °F 46.9 °F 30.12 in Calm     91 % 0.00 in
04:24 49.0 °F 46.5 °F 30.12 in Calm     91 % 0.00 in
04:34 48.2 °F 45.7 °F 30.12 in Calm     91 % 0.00 in
04:45 47.6 °F 45.4 °F 30.12 in Calm     92 % 0.00 in
04:55 47.2 °F 45.0 °F 30.12 in North 2.3 mph 2.3 mph 92 % 0.00 in
05:00 47.0 °F 44.8 °F 30.12 in Calm     92 % 0.00 in
05:05 46.8 °F 44.9 °F 30.12 in Calm     93 % 0.00 in
05:10 46.7 °F 44.8 °F 30.12 in Calm     93 % 0.00 in
05:15 46.7 °F 44.8 °F 30.12 in Calm     93 % 0.00 in
05:20 46.6 °F 44.7 °F 30.12 in Calm     93 % 0.00 in
05:25 46.6 °F 44.7 °F 30.12 in Calm     93 % 0.00 in
05:30 46.4 °F 44.5 °F 30.13 in Calm     93 % 0.00 in
05:35 46.4 °F 44.5 °F 30.13 in Calm     93 % 0.00 in
05:45 46.4 °F 44.8 °F 30.13 in North 1.2 mph 1.2 mph 94 % 0.00 in
05:55 46.5 °F 44.9 °F 30.14 in Calm     94 % 0.00 in
06:00 46.4 °F 44.8 °F 30.14 in Calm     94 % 0.00 in
06:05 46.5 °F 44.9 °F 30.13 in North 1.2 mph   94 % 0.00 in
06:08 46.7 °F 45.3 °F 30.13 in Calm     95 % 0.00 in
06:13 47.0 °F 45.6 °F 30.13 in North 1.2 mph 1.2 mph 95 % 0.00 in
06:24 47.3 °F 45.9 °F 30.13 in North 1.2 mph   95 % 0.00 in
06:29 47.6 °F 46.2 °F 30.12 in North 1.2 mph   95 % 0.00 in
06:34 47.9 °F 46.5 °F 30.12 in Calm     95 % 0.00 in
06:39 48.1 °F 46.7 °F 30.13 in Calm     95 % 0.00 in
06:44 48.4 °F 46.8 °F 30.14 in Calm     94 % 0.00 in
06:49 48.4 °F 46.8 °F 30.14 in Calm     94 % 0.00 in
06:54 48.4 °F 46.8 °F 30.14 in Calm     94 % 0.00 in
07:04 48.1 °F 46.2 °F 30.15 in Calm     93 % 0.00 in
07:10 47.9 °F 46.0 °F 30.15 in Calm     93 % 0.00 in
07:15 47.8 °F 45.9 °F 30.15 in Calm     93 % 0.00 in
07:20 47.8 °F 45.9 °F 30.15 in Calm     93 % 0.00 in
07:25 48.1 °F 46.5 °F 30.15 in Calm     94 % 0.00 in
07:30 48.3 °F 46.4 °F 30.15 in Calm     93 % 0.00 in
07:31 48.4 °F 46.5 °F 30.14 in Calm   0.1 mph 93 % 0.00 in
07:36 48.9 °F 47.0 °F 30.14 in East 1.2 mph 1.2 mph 93 % 0.00 in
07:42 49.7 °F 47.8 °F 30.14 in East 1.2 mph 1.2 mph 93 % 0.00 in
07:47 50.6 °F 48.4 °F 30.14 in SE 2.3 mph 2.3 mph 92 % 0.00 in
07:52 51.6 °F 49.1 °F 30.14 in East 1.0 mph   91 % 0.00 in
07:57 52.3 °F 49.5 °F 30.13 in Calm     90 % 0.00 in
08:02 53.2 °F 50.0 °F 30.13 in ESE 1.2 mph   89 % 0.00 in
08:07 54.0 °F 50.2 °F 30.13 in ESE 1.0 mph   87 % 0.00 in
08:12 55.1 °F 51.0 °F 30.14 in SSE 1.2 mph 1.2 mph 86 % 0.00 in
08:17 56.1 °F 51.3 °F 30.15 in Calm     84 % 0.00 in
08:22 56.5 °F 51.4 °F 30.15 in NNE 1.2 mph 1.2 mph 83 % 0.00 in
08:27 56.8 °F 51.0 °F 30.15 in NNW 1.2 mph 1.2 mph 81 % 0.00 in
08:32 57.0 °F 51.2 °F 30.15 in SSE 2.3 mph 2.3 mph 81 % 0.00 in
08:37 57.1 °F 51.0 °F 30.16 in West 1.2 mph 1.2 mph 80 % 0.00 in
08:42 56.9 °F 50.5 °F 30.16 in NW 1.2 mph 1.2 mph 79 % 0.00 in
08:47 56.7 °F 50.3 °F 30.16 in NNW 2.3 mph 2.3 mph 79 % 0.00 in
08:52 56.4 °F 50.3 °F 30.16 in North 1.2 mph   80 % 0.00 in
09:02 56.7 °F 50.6 °F 30.16 in North 1.0 mph 1.0 mph 80 % 0.00 in
09:07 57.1 °F 51.0 °F 30.16 in South 1.2 mph 1.2 mph 80 % 0.00 in
09:12 58.0 °F 51.2 °F 30.16 in Calm     78 % 0.00 in
09:17 58.6 °F 51.4 °F 30.16 in NNW 1.2 mph   77 % 0.00 in
09:22 58.5 °F 51.3 °F 30.16 in Calm     77 % 0.00 in
09:27 59.2 °F 52.0 °F 30.16 in SE 1.2 mph 1.2 mph 77 % 0.00 in
09:32 59.9 °F 52.0 °F 30.16 in East 1.2 mph 1.2 mph 75 % 0.00 in
09:42 61.0 °F 51.9 °F 30.16 in SE 1.2 mph 1.2 mph 72 % 0.00 in
09:47 61.0 °F 51.9 °F 30.16 in Calm     72 % 0.00 in
09:57 61.7 °F 53.0 °F 30.16 in Calm     73 % 0.00 in
10:07 61.8 °F 52.3 °F 30.15 in Calm     71 % 0.00 in
10:12 62.1 °F 52.6 °F 30.15 in Calm     71 % 0.00 in
10:17 62.7 °F 52.8 °F 30.15 in Calm     70 % 0.00 in
10:27 64.3 °F 54.7 °F 30.15 in Calm     71 % 0.00 in
10:32 64.7 °F 53.9 °F 30.14 in Calm     68 % 0.00 in
10:37 65.0 °F 53.8 °F 30.15 in Calm     67 % 0.00 in
10:47 65.5 °F 53.8 °F 30.13 in Calm   0.1 mph 66 % 0.00 in
10:57 66.6 °F 54.0 °F 30.12 in Calm     64 % 0.00 in
11:02 66.9 °F 53.9 °F 30.12 in SE 1.2 mph   63 % 0.00 in
11:07 67.1 °F 54.5 °F 30.12 in Calm     64 % 0.00 in
11:12 67.2 °F 54.2 °F 30.12 in NW 1.2 mph 1.2 mph 63 % 0.00 in
11:22 67.4 °F 54.8 °F 30.12 in West 1.2 mph 1.2 mph 64 % 0.00 in
11:27 67.7 °F 55.1 °F 30.11 in NNW 1.2 mph 1.2 mph 64 % 0.00 in
11:32 67.8 °F 54.7 °F 30.10 in Calm   0.6 mph 63 % 0.00 in
11:33 67.8 °F 54.7 °F 30.10 in NW 1.2 mph 1.2 mph 63 % 0.00 in
11:38 68.1 °F 55.0 °F 30.10 in Calm     63 % 0.00 in
11:43 68.6 °F 55.5 °F 30.10 in East 1.0 mph   63 % 0.00 in
11:53 69.0 °F 55.0 °F 30.10 in WNW 2.0 mph 2.0 mph 61 % 0.00 in
11:58 69.2 °F 55.2 °F 30.09 in WSW 1.2 mph   61 % 0.00 in
12:08 69.9 °F 55.8 °F 30.09 in WNW 2.3 mph 2.3 mph 61 % 0.00 in
12:18 70.5 °F 55.5 °F 30.09 in NW 1.2 mph 1.2 mph 59 % 0.00 in
12:23 70.7 °F 55.2 °F 30.09 in NW 2.3 mph 2.3 mph 58 % 0.00 in
12:28 71.0 °F 55.5 °F 30.08 in NNW 3.5 mph 3.5 mph 58 % 0.00 in
12:33 71.1 °F 55.6 °F 30.08 in WNW 1.2 mph 1.2 mph 58 % 0.00 in
12:38 71.1 °F 55.6 °F 30.08 in WNW 2.3 mph   58 % 0.00 in
12:43 71.3 °F 55.8 °F 30.08 in Calm     58 % 0.00 in
12:49 71.8 °F 55.7 °F 30.07 in NNW 2.3 mph 2.3 mph 57 % 0.00 in
12:59 72.4 °F 56.8 °F 30.07 in NW 2.3 mph 2.3 mph 58 % 0.00 in
13:04 72.7 °F 56.1 °F 30.07 in NW 2.3 mph 2.3 mph 56 % 0.00 in
13:09 72.6 °F 56.0 °F 30.07 in NW 1.2 mph 1.2 mph 56 % 0.00 in
13:19 72.6 °F 56.0 °F 30.06 in WNW 1.2 mph 1.2 mph 56 % 0.00 in
13:24 72.7 °F 55.6 °F 30.06 in North 4.0 mph 4.0 mph 55 % 0.00 in
13:29 72.5 °F 55.4 °F 30.06 in WNW 2.3 mph 2.3 mph 55 % 0.00 in
13:39 72.7 °F 55.6 °F 30.06 in WNW 2.0 mph 2.0 mph 55 % 0.00 in
13:44 73.0 °F 55.4 °F 30.05 in NW 2.0 mph 2.0 mph 54 % 0.00 in
13:49 73.3 °F 56.2 °F 30.06 in WNW 1.2 mph 1.2 mph 55 % 0.00 in
13:54 73.4 °F 56.7 °F 30.05 in North 1.2 mph 1.2 mph 56 % 0.00 in
14:04 73.3 °F 55.6 °F 30.05 in West 2.0 mph 2.0 mph 54 % 0.00 in
14:09 73.5 °F 55.8 °F 30.04 in Calm     54 % 0.00 in
14:14 74.0 °F 56.3 °F 30.04 in Calm     54 % 0.00 in
14:19 74.2 °F 56.0 °F 30.03 in NW 2.3 mph 2.3 mph 53 % 0.00 in
14:24 74.3 °F 55.5 °F 30.03 in ESE 1.2 mph   52 % 0.00 in
14:29 74.4 °F 55.1 °F 30.03 in Calm     51 % 0.00 in
14:39 74.1 °F 55.9 °F 30.03 in Calm     53 % 0.00 in
14:44 73.9 °F 55.7 °F 30.03 in Calm     53 % 0.00 in
14:49 73.6 °F 55.4 °F 30.03 in WNW 1.2 mph   53 % 0.00 in
14:59 73.6 °F 55.9 °F 30.03 in Calm     54 % 0.00 in
15:04 73.5 °F 55.8 °F 30.03 in WNW 1.2 mph   54 % 0.00 in
15:09 73.5 °F 55.8 °F 30.03 in Calm     54 % 0.00 in
15:14 73.5 °F 55.8 °F 30.02 in Calm     54 % 0.00 in
15:19 73.5 °F 55.8 °F 30.03 in Calm     54 % 0.00 in
15:24 73.3 °F 56.2 °F 30.03 in Calm     55 % 0.00 in
15:29 73.3 °F 56.2 °F 30.03 in Calm     55 % 0.00 in
15:39 73.0 °F 56.4 °F 30.03 in Calm     56 % 0.00 in
15:49 72.6 °F 56.5 °F 30.03 in Calm     57 % 0.00 in
15:59 72.2 °F 56.6 °F 30.03 in Calm     58 % 0.00 in
16:04 71.9 °F 56.3 °F 30.03 in Calm     58 % 0.00 in
16:14 71.1 °F 55.6 °F 30.02 in Calm     58 % 0.00 in
16:24 70.4 °F 55.8 °F 30.03 in Calm     60 % 0.00 in
16:34 69.2 °F 55.6 °F 30.03 in Calm     62 % 0.00 in
16:39 68.9 °F 55.3 °F 30.03 in Calm     62 % 0.00 in
16:40 68.9 °F 55.3 °F 30.03 in Calm     62 % 0.00 in
16:45 68.8 °F 55.7 °F 30.03 in Calm     63 % 0.00 in
16:50 68.4 °F 55.7 °F 30.03 in Calm     64 % 0.00 in
16:55 67.8 °F 55.6 °F 30.03 in Calm     65 % 0.00 in
17:00 67.1 °F 55.8 °F 30.03 in Calm     67 % 0.00 in
17:05 66.2 °F 55.7 °F 30.03 in Calm     69 % 0.00 in
17:10 65.6 °F 55.5 °F 30.03 in Calm     70 % 0.00 in
17:15 64.9 °F 55.7 °F 30.04 in Calm     72 % 0.00 in
17:20 64.4 °F 55.6 °F 30.04 in Calm     73 % 0.00 in
17:30 63.5 °F 55.1 °F 30.04 in Calm     74 % 0.00 in
17:35 63.2 °F 55.1 °F 30.04 in Calm     75 % 0.00 in
17:40 62.8 °F 55.1 °F 30.04 in Calm     76 % 0.00 in
17:45 62.5 °F 55.2 °F 30.04 in Calm     77 % 0.00 in
17:50 62.2 °F 54.9 °F 30.04 in Calm     77 % 0.00 in
18:00 61.9 °F 55.0 °F 30.04 in Calm     78 % 0.00 in
18:05 61.4 °F 54.8 °F 30.04 in Calm     79 % 0.00 in
18:10 61.1 °F 54.9 °F 30.04 in Calm     80 % 0.00 in
18:15 60.8 °F 54.9 °F 30.04 in Calm     81 % 0.00 in
18:21 60.5 °F 54.6 °F 30.04 in Calm     81 % 0.00 in
18:36 59.7 °F 54.2 °F 30.05 in Calm     82 % 0.00 in
18:41 59.6 °F 54.4 °F 30.05 in Calm     83 % 0.00 in
18:46 59.7 °F 54.5 °F 30.05 in Calm     83 % 0.00 in
18:51 59.7 °F 54.2 °F 30.05 in Calm     82 % 0.00 in
18:56 59.7 °F 54.2 °F 30.06 in Calm     82 % 0.00 in
19:01 59.3 °F 53.8 °F 30.06 in Calm     82 % 0.00 in
19:11 58.6 °F 53.8 °F 30.06 in Calm     84 % 0.00 in
19:16 58.6 °F 53.8 °F 30.06 in Calm     84 % 0.00 in
19:20 58.3 °F 53.5 °F 30.06 in Calm     84 % 0.00 in
19:23 58.2 °F 53.7 °F 30.07 in Calm     85 % 0.00 in
19:28 57.9 °F 53.4 °F 30.07 in Calm     85 % 0.00 in
19:30 57.9 °F 53.4 °F 30.06 in Calm     85 % 0.00 in
19:35 57.8 °F 53.6 °F 30.07 in Calm     86 % 0.00 in
19:40 57.8 °F 53.6 °F 30.06 in Calm     86 % 0.00 in
19:45 57.7 °F 53.5 °F 30.06 in Calm     86 % 0.00 in
19:50 57.8 °F 53.6 °F 30.07 in Calm     86 % 0.00 in
19:55 57.9 °F 53.7 °F 30.07 in Calm     86 % 0.00 in
20:00 57.8 °F 53.3 °F 30.07 in Calm     85 % 0.00 in
20:05 57.6 °F 53.4 °F 30.06 in Calm     86 % 0.00 in
20:10 57.4 °F 53.2 °F 30.07 in Calm     86 % 0.00 in
20:16 57.1 °F 53.0 °F 30.06 in Calm     86 % 0.00 in
20:36 56.4 °F 52.9 °F 30.06 in Calm     88 % 0.00 in
20:41 56.1 °F 52.3 °F 30.07 in Calm     87 % 0.00 in
20:46 55.9 °F 52.1 °F 30.07 in Calm     87 % 0.00 in
20:51 55.5 °F 52.0 °F 30.07 in Calm     88 % 0.00 in
20:56 55.4 °F 51.9 °F 30.08 in Calm     88 % 0.00 in
21:01 55.2 °F 51.7 °F 30.08 in Calm     88 % 0.00 in
21:06 55.0 °F 51.8 °F 30.08 in Calm     89 % 0.00 in
21:11 55.0 °F 51.8 °F 30.08 in Calm     89 % 0.00 in
21:16 54.9 °F 51.7 °F 30.08 in Calm     89 % 0.00 in
21:31 55.0 °F 52.1 °F 30.08 in Calm     90 % 0.00 in
21:36 55.3 °F 52.1 °F 30.08 in Calm     89 % 0.00 in
21:41 55.3 °F 52.1 °F 30.08 in Calm     89 % 0.00 in
21:51 55.3 °F 52.1 °F 30.08 in Calm     89 % 0.00 in
22:06 55.5 °F 52.0 °F 30.09 in Calm     88 % 0.00 in
22:11 55.4 °F 52.2 °F 30.09 in Calm     89 % 0.00 in
22:16 55.2 °F 52.0 °F 30.09 in Calm     89 % 0.00 in
22:21 55.4 °F 52.2 °F 30.08 in East 1.2 mph   89 % 0.00 in
22:26 55.8 °F 52.3 °F 30.08 in Calm     88 % 0.00 in
22:36 55.4 °F 51.9 °F 30.09 in Calm     88 % 0.00 in
22:51 54.7 °F 51.8 °F 30.08 in Calm     90 % 0.00 in
23:01 54.5 °F 51.6 °F 30.08 in Calm     90 % 0.00 in
23:06 54.4 °F 51.5 °F 30.08 in Calm     90 % 0.00 in
23:11 54.2 °F 51.3 °F 30.08 in Calm     90 % 0.00 in
23:16 53.8 °F 50.9 °F 30.08 in Calm     90 % 0.00 in
23:21 53.5 °F 50.6 °F 30.07 in Calm     90 % 0.00 in
23:31 52.6 °F 49.8 °F 30.08 in ESE 1.2 mph   90 % 0.00 in
23:41 52.3 °F 50.0 °F 30.08 in Calm     92 % 0.00 in
23:46 52.2 °F 49.9 °F 30.08 in Calm     92 % 0.00 in
23:51 52.1 °F 49.8 °F 30.08 in Calm     92 % 0.00 in
23:56 52.1 °F 50.1 °F 30.08 in Calm     93 % 0.00 in
Park Place, Exeter, Tulare County, California, USA
Compliments of Weather Underground - 2.5 mb